<?xml version="1.0" encoding="UTF-8" standalone="no" ?>
<gpx xmlns="http://www.topografix.com/GPX/1/1" xmlns:xsi="http://www.w3.org/2001/XMLSchema-instance" xsi:schemaLocation="http://www.topografix.com/GPX/1/1 http://www.topografix.com/GPX/1/1/gpx.xsd" version="1.1" creator="VisuGPX - https://www.visugpx.com">
  <metadata>
    <name>20150727 - Croce Usciolu</name>
    <desc><![CDATA[Croce Usciolu, corse du sud, GR20 et variantes

GR20SUD201507]]></desc>
  </metadata>
  <trk>
    <name><![CDATA[2015-07-26 07:56]]></name>
    <desc><![CDATA[<h1>OruxMaps</h1><br /><hr align="center" width="480" style="height: 2px; width: 517px"/><h2>Nom: 2015-07-26 07:56</h2><br /><p>Temps de départ: 07/27/2015 07:11</p><p>Temps d'arrivée: 07/27/2015 15:48</p><p>Distance: 12,5km (08:36)</p><p>Temps déplacement: 04:27</p><p>Vitesse moyenne: 1,4km/h</p><p>Vitesse moyenne: 2,8km/h</p><p>Vitess Max.: 13,3km/h</p><p>Altitude minimale: 1301m</p><p>Altitude maximale: 1833m</p><p>Vitesse d'élévation: 224,2m/h</p><p>Vitesse de descente: -188,8m/h</p><p>Gain Altitude: 759m</p><p>Perte Altitude: -553m</p><p>Temps d'élévation: 03:23</p><p>Temps de descente: 02:56</p><hr align="center" width="480" style="height: 2px; width: 517px"/>]]></desc>
    <trkseg>
      <trkpt lat="41.85538" lon="9.16597">
        <ele>1541.47</ele>
        <time>2015-07-27T05:11:53Z</time>
      </trkpt>
      <trkpt lat="41.85555" lon="9.16588">
        <ele>1542.96</ele>
        <time>2015-07-27T05:25:28Z</time>
      </trkpt>
      <trkpt lat="41.85573" lon="9.16586">
        <ele>1540.51</ele>
        <time>2015-07-27T05:25:56Z</time>
      </trkpt>
      <trkpt lat="41.8559" lon="9.1658">
        <ele>1535.57</ele>
        <time>2015-07-27T05:26:22Z</time>
      </trkpt>
      <trkpt lat="41.85607" lon="9.16588">
        <ele>1533.98</ele>
        <time>2015-07-27T05:26:42Z</time>
      </trkpt>
      <trkpt lat="41.85624" lon="9.16579">
        <ele>1531.41</ele>
        <time>2015-07-27T05:27:06Z</time>
      </trkpt>
      <trkpt lat="41.85633" lon="9.16557">
        <ele>1525.94</ele>
        <time>2015-07-27T05:27:27Z</time>
      </trkpt>
      <trkpt lat="41.85641" lon="9.16535">
        <ele>1520.92</ele>
        <time>2015-07-27T05:27:49Z</time>
      </trkpt>
      <trkpt lat="41.85655" lon="9.16519">
        <ele>1519.89</ele>
        <time>2015-07-27T05:28:10Z</time>
      </trkpt>
      <trkpt lat="41.85666" lon="9.16499">
        <ele>1518.09</ele>
        <time>2015-07-27T05:28:26Z</time>
      </trkpt>
      <trkpt lat="41.85683" lon="9.16488">
        <ele>1517.29</ele>
        <time>2015-07-27T05:28:48Z</time>
      </trkpt>
      <trkpt lat="41.85697" lon="9.16472">
        <ele>1509.96</ele>
        <time>2015-07-27T05:29:12Z</time>
      </trkpt>
      <trkpt lat="41.85714" lon="9.16464">
        <ele>1509.03</ele>
        <time>2015-07-27T05:29:36Z</time>
      </trkpt>
      <trkpt lat="41.85732" lon="9.16467">
        <ele>1506.07</ele>
        <time>2015-07-27T05:30:01Z</time>
      </trkpt>
      <trkpt lat="41.85749" lon="9.16475">
        <ele>1499.62</ele>
        <time>2015-07-27T05:30:37Z</time>
      </trkpt>
      <trkpt lat="41.85767" lon="9.16479">
        <ele>1496.57</ele>
        <time>2015-07-27T05:31:01Z</time>
      </trkpt>
      <trkpt lat="41.85783" lon="9.1649">
        <ele>1494.25</ele>
        <time>2015-07-27T05:31:22Z</time>
      </trkpt>
      <trkpt lat="41.85801" lon="9.16496">
        <ele>1494.4</ele>
        <time>2015-07-27T05:31:49Z</time>
      </trkpt>
      <trkpt lat="41.85819" lon="9.165">
        <ele>1493.73</ele>
        <time>2015-07-27T05:32:32Z</time>
      </trkpt>
      <trkpt lat="41.85835" lon="9.16513">
        <ele>1493.11</ele>
        <time>2015-07-27T05:32:49Z</time>
      </trkpt>
      <trkpt lat="41.85853" lon="9.16509">
        <ele>1492.98</ele>
        <time>2015-07-27T05:33:24Z</time>
      </trkpt>
      <trkpt lat="41.85864" lon="9.16489">
        <ele>1488.05</ele>
        <time>2015-07-27T05:33:45Z</time>
      </trkpt>
      <trkpt lat="41.85874" lon="9.16467">
        <ele>1491.1</ele>
        <time>2015-07-27T05:34:08Z</time>
      </trkpt>
      <trkpt lat="41.85886" lon="9.16449">
        <ele>1486.89</ele>
        <time>2015-07-27T05:34:36Z</time>
      </trkpt>
      <trkpt lat="41.85901" lon="9.16433">
        <ele>1475.93</ele>
        <time>2015-07-27T05:34:54Z</time>
      </trkpt>
      <trkpt lat="41.85919" lon="9.16433">
        <ele>1472.01</ele>
        <time>2015-07-27T05:35:09Z</time>
      </trkpt>
      <trkpt lat="41.85937" lon="9.16436">
        <ele>1476.32</ele>
        <time>2015-07-27T05:35:32Z</time>
      </trkpt>
      <trkpt lat="41.85956" lon="9.16431">
        <ele>1476.28</ele>
        <time>2015-07-27T05:35:57Z</time>
      </trkpt>
      <trkpt lat="41.85973" lon="9.16426">
        <ele>1475.03</ele>
        <time>2015-07-27T05:36:17Z</time>
      </trkpt>
      <trkpt lat="41.85992" lon="9.16421">
        <ele>1474.64</ele>
        <time>2015-07-27T05:36:40Z</time>
      </trkpt>
      <trkpt lat="41.8601" lon="9.16424">
        <ele>1472.95</ele>
        <time>2015-07-27T05:36:55Z</time>
      </trkpt>
      <trkpt lat="41.86028" lon="9.16426">
        <ele>1469.29</ele>
        <time>2015-07-27T05:37:12Z</time>
      </trkpt>
      <trkpt lat="41.86047" lon="9.16426">
        <ele>1469.16</ele>
        <time>2015-07-27T05:37:32Z</time>
      </trkpt>
      <trkpt lat="41.86064" lon="9.16421">
        <ele>1468.62</ele>
        <time>2015-07-27T05:37:57Z</time>
      </trkpt>
      <trkpt lat="41.86082" lon="9.16428">
        <ele>1464.95</ele>
        <time>2015-07-27T05:38:15Z</time>
      </trkpt>
      <trkpt lat="41.861" lon="9.16425">
        <ele>1464.48</ele>
        <time>2015-07-27T05:38:36Z</time>
      </trkpt>
      <trkpt lat="41.86109" lon="9.16403">
        <ele>1473.01</ele>
        <time>2015-07-27T05:38:53Z</time>
      </trkpt>
      <trkpt lat="41.86112" lon="9.16379">
        <ele>1468.78</ele>
        <time>2015-07-27T05:39:21Z</time>
      </trkpt>
      <trkpt lat="41.86113" lon="9.16354">
        <ele>1463.46</ele>
        <time>2015-07-27T05:39:46Z</time>
      </trkpt>
      <trkpt lat="41.86128" lon="9.16338">
        <ele>1461.34</ele>
        <time>2015-07-27T05:40:04Z</time>
      </trkpt>
      <trkpt lat="41.86142" lon="9.16323">
        <ele>1458.66</ele>
        <time>2015-07-27T05:40:24Z</time>
      </trkpt>
      <trkpt lat="41.86158" lon="9.16311">
        <ele>1451.44</ele>
        <time>2015-07-27T05:40:52Z</time>
      </trkpt>
      <trkpt lat="41.8617" lon="9.16291">
        <ele>1454.61</ele>
        <time>2015-07-27T05:41:40Z</time>
      </trkpt>
      <trkpt lat="41.8617" lon="9.16266">
        <ele>1452.1</ele>
        <time>2015-07-27T05:42:10Z</time>
      </trkpt>
      <trkpt lat="41.86174" lon="9.16241">
        <ele>1453.25</ele>
        <time>2015-07-27T05:42:27Z</time>
      </trkpt>
      <trkpt lat="41.86188" lon="9.16225">
        <ele>1455.43</ele>
        <time>2015-07-27T05:42:41Z</time>
      </trkpt>
      <trkpt lat="41.86203" lon="9.1621">
        <ele>1455.4</ele>
        <time>2015-07-27T05:42:58Z</time>
      </trkpt>
      <trkpt lat="41.86219" lon="9.16196">
        <ele>1454.87</ele>
        <time>2015-07-27T05:43:15Z</time>
      </trkpt>
      <trkpt lat="41.86237" lon="9.16191">
        <ele>1455.57</ele>
        <time>2015-07-27T05:43:31Z</time>
      </trkpt>
      <trkpt lat="41.86247" lon="9.16169">
        <ele>1453.97</ele>
        <time>2015-07-27T05:43:56Z</time>
      </trkpt>
      <trkpt lat="41.86258" lon="9.1615">
        <ele>1455.47</ele>
        <time>2015-07-27T05:44:14Z</time>
      </trkpt>
      <trkpt lat="41.8626" lon="9.16126">
        <ele>1447.73</ele>
        <time>2015-07-27T05:44:44Z</time>
      </trkpt>
      <trkpt lat="41.86252" lon="9.16103">
        <ele>1443.34</ele>
        <time>2015-07-27T05:45:02Z</time>
      </trkpt>
      <trkpt lat="41.86247" lon="9.16078">
        <ele>1445.34</ele>
        <time>2015-07-27T05:45:22Z</time>
      </trkpt>
      <trkpt lat="41.86244" lon="9.16054">
        <ele>1448.45</ele>
        <time>2015-07-27T05:45:36Z</time>
      </trkpt>
      <trkpt lat="41.86238" lon="9.16031">
        <ele>1447.75</ele>
        <time>2015-07-27T05:45:51Z</time>
      </trkpt>
      <trkpt lat="41.86227" lon="9.16011">
        <ele>1447.34</ele>
        <time>2015-07-27T05:46:11Z</time>
      </trkpt>
      <trkpt lat="41.86214" lon="9.15993">
        <ele>1446.84</ele>
        <time>2015-07-27T05:46:27Z</time>
      </trkpt>
      <trkpt lat="41.86206" lon="9.1597">
        <ele>1445.87</ele>
        <time>2015-07-27T05:46:41Z</time>
      </trkpt>
      <trkpt lat="41.86203" lon="9.15946">
        <ele>1445.34</ele>
        <time>2015-07-27T05:46:56Z</time>
      </trkpt>
      <trkpt lat="41.86201" lon="9.15922">
        <ele>1442.5</ele>
        <time>2015-07-27T05:47:13Z</time>
      </trkpt>
      <trkpt lat="41.86199" lon="9.15896">
        <ele>1442.41</ele>
        <time>2015-07-27T05:47:30Z</time>
      </trkpt>
      <trkpt lat="41.86204" lon="9.15871">
        <ele>1445.81</ele>
        <time>2015-07-27T05:47:45Z</time>
      </trkpt>
      <trkpt lat="41.86215" lon="9.15852">
        <ele>1444.99</ele>
        <time>2015-07-27T05:48:02Z</time>
      </trkpt>
      <trkpt lat="41.86231" lon="9.15838">
        <ele>1442.81</ele>
        <time>2015-07-27T05:48:22Z</time>
      </trkpt>
      <trkpt lat="41.86249" lon="9.15833">
        <ele>1440.26</ele>
        <time>2015-07-27T05:48:36Z</time>
      </trkpt>
      <trkpt lat="41.86268" lon="9.15829">
        <ele>1442.17</ele>
        <time>2015-07-27T05:48:52Z</time>
      </trkpt>
      <trkpt lat="41.86285" lon="9.15821">
        <ele>1445.46</ele>
        <time>2015-07-27T05:49:10Z</time>
      </trkpt>
      <trkpt lat="41.86304" lon="9.1582">
        <ele>1441.06</ele>
        <time>2015-07-27T05:49:27Z</time>
      </trkpt>
      <trkpt lat="41.86322" lon="9.15813">
        <ele>1437.78</ele>
        <time>2015-07-27T05:49:45Z</time>
      </trkpt>
      <trkpt lat="41.8634" lon="9.15815">
        <ele>1436.16</ele>
        <time>2015-07-27T05:50:02Z</time>
      </trkpt>
      <trkpt lat="41.86358" lon="9.1582">
        <ele>1439.92</ele>
        <time>2015-07-27T05:50:19Z</time>
      </trkpt>
      <trkpt lat="41.86376" lon="9.15823">
        <ele>1438.26</ele>
        <time>2015-07-27T05:50:35Z</time>
      </trkpt>
      <trkpt lat="41.86395" lon="9.15821">
        <ele>1439.58</ele>
        <time>2015-07-27T05:50:51Z</time>
      </trkpt>
      <trkpt lat="41.86412" lon="9.15811">
        <ele>1437.98</ele>
        <time>2015-07-27T05:51:09Z</time>
      </trkpt>
      <trkpt lat="41.86428" lon="9.158">
        <ele>1439.56</ele>
        <time>2015-07-27T05:51:25Z</time>
      </trkpt>
      <trkpt lat="41.86444" lon="9.15789">
        <ele>1439.91</ele>
        <time>2015-07-27T05:51:40Z</time>
      </trkpt>
      <trkpt lat="41.86461" lon="9.15781">
        <ele>1440.47</ele>
        <time>2015-07-27T05:53:00Z</time>
      </trkpt>
      <trkpt lat="41.86479" lon="9.15775">
        <ele>1433.47</ele>
        <time>2015-07-27T05:56:38Z</time>
      </trkpt>
      <trkpt lat="41.86497" lon="9.15766">
        <ele>1433.71</ele>
        <time>2015-07-27T05:56:55Z</time>
      </trkpt>
      <trkpt lat="41.86514" lon="9.1576">
        <ele>1430.97</ele>
        <time>2015-07-27T05:57:13Z</time>
      </trkpt>
      <trkpt lat="41.86532" lon="9.15758">
        <ele>1432.97</ele>
        <time>2015-07-27T05:57:29Z</time>
      </trkpt>
      <trkpt lat="41.8655" lon="9.15765">
        <ele>1428.48</ele>
        <time>2015-07-27T05:57:44Z</time>
      </trkpt>
      <trkpt lat="41.86566" lon="9.15776">
        <ele>1427.08</ele>
        <time>2015-07-27T05:58:01Z</time>
      </trkpt>
      <trkpt lat="41.86585" lon="9.15782">
        <ele>1432.68</ele>
        <time>2015-07-27T05:58:17Z</time>
      </trkpt>
      <trkpt lat="41.86602" lon="9.15788">
        <ele>1431.83</ele>
        <time>2015-07-27T05:58:34Z</time>
      </trkpt>
      <trkpt lat="41.86621" lon="9.15784">
        <ele>1432.1</ele>
        <time>2015-07-27T05:58:52Z</time>
      </trkpt>
      <trkpt lat="41.86638" lon="9.15773">
        <ele>1436.25</ele>
        <time>2015-07-27T05:59:09Z</time>
      </trkpt>
      <trkpt lat="41.86653" lon="9.15759">
        <ele>1432.41</ele>
        <time>2015-07-27T05:59:44Z</time>
      </trkpt>
      <trkpt lat="41.86666" lon="9.15741">
        <ele>1430.79</ele>
        <time>2015-07-27T05:59:58Z</time>
      </trkpt>
      <trkpt lat="41.8668" lon="9.15726">
        <ele>1429.65</ele>
        <time>2015-07-27T06:00:12Z</time>
      </trkpt>
      <trkpt lat="41.86692" lon="9.15708">
        <ele>1430.5</ele>
        <time>2015-07-27T06:00:28Z</time>
      </trkpt>
      <trkpt lat="41.86705" lon="9.15689">
        <ele>1431.46</ele>
        <time>2015-07-27T06:00:42Z</time>
      </trkpt>
      <trkpt lat="41.86717" lon="9.1567">
        <ele>1432.21</ele>
        <time>2015-07-27T06:00:59Z</time>
      </trkpt>
      <trkpt lat="41.86726" lon="9.15649">
        <ele>1425.21</ele>
        <time>2015-07-27T06:01:17Z</time>
      </trkpt>
      <trkpt lat="41.86741" lon="9.15633">
        <ele>1425.47</ele>
        <time>2015-07-27T06:01:40Z</time>
      </trkpt>
      <trkpt lat="41.86758" lon="9.15622">
        <ele>1424.24</ele>
        <time>2015-07-27T06:02:01Z</time>
      </trkpt>
      <trkpt lat="41.86776" lon="9.15616">
        <ele>1421.29</ele>
        <time>2015-07-27T06:02:15Z</time>
      </trkpt>
      <trkpt lat="41.86794" lon="9.15613">
        <ele>1421.19</ele>
        <time>2015-07-27T06:02:29Z</time>
      </trkpt>
      <trkpt lat="41.86812" lon="9.15622">
        <ele>1421.25</ele>
        <time>2015-07-27T06:02:42Z</time>
      </trkpt>
      <trkpt lat="41.86831" lon="9.15622">
        <ele>1427.63</ele>
        <time>2015-07-27T06:02:59Z</time>
      </trkpt>
      <trkpt lat="41.86849" lon="9.15619">
        <ele>1427.81</ele>
        <time>2015-07-27T06:03:14Z</time>
      </trkpt>
      <trkpt lat="41.86867" lon="9.15612">
        <ele>1422.87</ele>
        <time>2015-07-27T06:03:32Z</time>
      </trkpt>
      <trkpt lat="41.86883" lon="9.15599">
        <ele>1423.95</ele>
        <time>2015-07-27T06:03:48Z</time>
      </trkpt>
      <trkpt lat="41.86897" lon="9.15584">
        <ele>1423.07</ele>
        <time>2015-07-27T06:04:02Z</time>
      </trkpt>
      <trkpt lat="41.86915" lon="9.15576">
        <ele>1425.9</ele>
        <time>2015-07-27T06:04:17Z</time>
      </trkpt>
      <trkpt lat="41.86933" lon="9.15579">
        <ele>1422.53</ele>
        <time>2015-07-27T06:04:34Z</time>
      </trkpt>
      <trkpt lat="41.86951" lon="9.15582">
        <ele>1421.55</ele>
        <time>2015-07-27T06:04:49Z</time>
      </trkpt>
      <trkpt lat="41.8697" lon="9.15584">
        <ele>1423.07</ele>
        <time>2015-07-27T06:05:06Z</time>
      </trkpt>
      <trkpt lat="41.86988" lon="9.1559">
        <ele>1420.4</ele>
        <time>2015-07-27T06:05:22Z</time>
      </trkpt>
      <trkpt lat="41.87006" lon="9.15596">
        <ele>1423.53</ele>
        <time>2015-07-27T06:05:39Z</time>
      </trkpt>
      <trkpt lat="41.87023" lon="9.15605">
        <ele>1418.01</ele>
        <time>2015-07-27T06:05:52Z</time>
      </trkpt>
      <trkpt lat="41.87042" lon="9.15608">
        <ele>1422.81</ele>
        <time>2015-07-27T06:06:09Z</time>
      </trkpt>
      <trkpt lat="41.87061" lon="9.15605">
        <ele>1421.24</ele>
        <time>2015-07-27T06:06:28Z</time>
      </trkpt>
      <trkpt lat="41.87079" lon="9.15601">
        <ele>1424.16</ele>
        <time>2015-07-27T06:06:44Z</time>
      </trkpt>
      <trkpt lat="41.87097" lon="9.156">
        <ele>1425.05</ele>
        <time>2015-07-27T06:07:00Z</time>
      </trkpt>
      <trkpt lat="41.87116" lon="9.156">
        <ele>1423.47</ele>
        <time>2015-07-27T06:07:17Z</time>
      </trkpt>
      <trkpt lat="41.87134" lon="9.15606">
        <ele>1420.83</ele>
        <time>2015-07-27T06:07:35Z</time>
      </trkpt>
      <trkpt lat="41.87152" lon="9.1561">
        <ele>1422.31</ele>
        <time>2015-07-27T06:07:51Z</time>
      </trkpt>
      <trkpt lat="41.87171" lon="9.15609">
        <ele>1422.97</ele>
        <time>2015-07-27T06:08:07Z</time>
      </trkpt>
      <trkpt lat="41.87188" lon="9.15602">
        <ele>1425.43</ele>
        <time>2015-07-27T06:08:23Z</time>
      </trkpt>
      <trkpt lat="41.87206" lon="9.15601">
        <ele>1428.15</ele>
        <time>2015-07-27T06:08:38Z</time>
      </trkpt>
      <trkpt lat="41.87223" lon="9.15608">
        <ele>1427.47</ele>
        <time>2015-07-27T06:08:54Z</time>
      </trkpt>
      <trkpt lat="41.87241" lon="9.15617">
        <ele>1427.63</ele>
        <time>2015-07-27T06:09:12Z</time>
      </trkpt>
      <trkpt lat="41.87259" lon="9.15614">
        <ele>1429.47</ele>
        <time>2015-07-27T06:09:28Z</time>
      </trkpt>
      <trkpt lat="41.87273" lon="9.15598">
        <ele>1425.59</ele>
        <time>2015-07-27T06:09:44Z</time>
      </trkpt>
      <trkpt lat="41.87281" lon="9.15575">
        <ele>1424.48</ele>
        <time>2015-07-27T06:09:59Z</time>
      </trkpt>
      <trkpt lat="41.87283" lon="9.1555">
        <ele>1425.03</ele>
        <time>2015-07-27T06:10:17Z</time>
      </trkpt>
      <trkpt lat="41.87283" lon="9.15526">
        <ele>1427.6</ele>
        <time>2015-07-27T06:10:30Z</time>
      </trkpt>
      <trkpt lat="41.87285" lon="9.15501">
        <ele>1425.47</ele>
        <time>2015-07-27T06:10:45Z</time>
      </trkpt>
      <trkpt lat="41.87293" lon="9.15478">
        <ele>1421.04</ele>
        <time>2015-07-27T06:11:01Z</time>
      </trkpt>
      <trkpt lat="41.87303" lon="9.15456">
        <ele>1421.69</ele>
        <time>2015-07-27T06:11:17Z</time>
      </trkpt>
      <trkpt lat="41.8731" lon="9.15432">
        <ele>1422.78</ele>
        <time>2015-07-27T06:11:32Z</time>
      </trkpt>
      <trkpt lat="41.87318" lon="9.15409">
        <ele>1420.87</ele>
        <time>2015-07-27T06:11:48Z</time>
      </trkpt>
      <trkpt lat="41.87327" lon="9.15387">
        <ele>1416.63</ele>
        <time>2015-07-27T06:12:02Z</time>
      </trkpt>
      <trkpt lat="41.87335" lon="9.15365">
        <ele>1415.78</ele>
        <time>2015-07-27T06:12:17Z</time>
      </trkpt>
      <trkpt lat="41.87342" lon="9.15342">
        <ele>1416.15</ele>
        <time>2015-07-27T06:12:34Z</time>
      </trkpt>
      <trkpt lat="41.87348" lon="9.15318">
        <ele>1410.66</ele>
        <time>2015-07-27T06:12:54Z</time>
      </trkpt>
      <trkpt lat="41.87364" lon="9.15308">
        <ele>1415.9</ele>
        <time>2015-07-27T06:13:11Z</time>
      </trkpt>
      <trkpt lat="41.8738" lon="9.1532">
        <ele>1418.9</ele>
        <time>2015-07-27T06:13:25Z</time>
      </trkpt>
      <trkpt lat="41.87397" lon="9.1531">
        <ele>1418.31</ele>
        <time>2015-07-27T06:13:46Z</time>
      </trkpt>
      <trkpt lat="41.87414" lon="9.15301">
        <ele>1413.53</ele>
        <time>2015-07-27T06:14:19Z</time>
      </trkpt>
      <trkpt lat="41.8743" lon="9.15312">
        <ele>1407.71</ele>
        <time>2015-07-27T06:14:36Z</time>
      </trkpt>
      <trkpt lat="41.87449" lon="9.15315">
        <ele>1412.33</ele>
        <time>2015-07-27T06:15:39Z</time>
      </trkpt>
      <trkpt lat="41.87465" lon="9.15325">
        <ele>1406.14</ele>
        <time>2015-07-27T06:16:02Z</time>
      </trkpt>
      <trkpt lat="41.87483" lon="9.15327">
        <ele>1414.28</ele>
        <time>2015-07-27T06:16:27Z</time>
      </trkpt>
      <trkpt lat="41.87502" lon="9.15328">
        <ele>1414.84</ele>
        <time>2015-07-27T06:16:48Z</time>
      </trkpt>
      <trkpt lat="41.87519" lon="9.15338">
        <ele>1415.57</ele>
        <time>2015-07-27T06:17:14Z</time>
      </trkpt>
      <trkpt lat="41.87536" lon="9.15347">
        <ele>1410.35</ele>
        <time>2015-07-27T06:17:39Z</time>
      </trkpt>
      <trkpt lat="41.87555" lon="9.15352">
        <ele>1414.38</ele>
        <time>2015-07-27T06:18:25Z</time>
      </trkpt>
      <trkpt lat="41.87571" lon="9.15364">
        <ele>1406.99</ele>
        <time>2015-07-27T06:18:37Z</time>
      </trkpt>
      <trkpt lat="41.87589" lon="9.15363">
        <ele>1410.2</ele>
        <time>2015-07-27T06:18:56Z</time>
      </trkpt>
      <trkpt lat="41.87605" lon="9.15352">
        <ele>1403.76</ele>
        <time>2015-07-27T06:19:12Z</time>
      </trkpt>
      <trkpt lat="41.87615" lon="9.1533">
        <ele>1403.73</ele>
        <time>2015-07-27T06:19:37Z</time>
      </trkpt>
      <trkpt lat="41.87627" lon="9.15313">
        <ele>1405.53</ele>
        <time>2015-07-27T06:19:56Z</time>
      </trkpt>
      <trkpt lat="41.8764" lon="9.15295">
        <ele>1396.78</ele>
        <time>2015-07-27T06:20:26Z</time>
      </trkpt>
      <trkpt lat="41.87655" lon="9.15279">
        <ele>1390.66</ele>
        <time>2015-07-27T06:20:44Z</time>
      </trkpt>
      <trkpt lat="41.87673" lon="9.15272">
        <ele>1392.72</ele>
        <time>2015-07-27T06:21:24Z</time>
      </trkpt>
      <trkpt lat="41.87685" lon="9.15291">
        <ele>1392.49</ele>
        <time>2015-07-27T06:21:43Z</time>
      </trkpt>
      <trkpt lat="41.87701" lon="9.15302">
        <ele>1391.15</ele>
        <time>2015-07-27T06:22:04Z</time>
      </trkpt>
      <trkpt lat="41.87717" lon="9.15314">
        <ele>1393.05</ele>
        <time>2015-07-27T06:22:22Z</time>
      </trkpt>
      <trkpt lat="41.87731" lon="9.1533">
        <ele>1390.53</ele>
        <time>2015-07-27T06:22:53Z</time>
      </trkpt>
      <trkpt lat="41.87746" lon="9.15346">
        <ele>1391.15</ele>
        <time>2015-07-27T06:23:07Z</time>
      </trkpt>
      <trkpt lat="41.87759" lon="9.15364">
        <ele>1397.91</ele>
        <time>2015-07-27T06:23:20Z</time>
      </trkpt>
      <trkpt lat="41.87772" lon="9.15382">
        <ele>1388.4</ele>
        <time>2015-07-27T06:23:42Z</time>
      </trkpt>
      <trkpt lat="41.87787" lon="9.15398">
        <ele>1381.58</ele>
        <time>2015-07-27T06:24:01Z</time>
      </trkpt>
      <trkpt lat="41.87803" lon="9.15411">
        <ele>1385.22</ele>
        <time>2015-07-27T06:24:24Z</time>
      </trkpt>
      <trkpt lat="41.87818" lon="9.15425">
        <ele>1373.39</ele>
        <time>2015-07-27T06:24:57Z</time>
      </trkpt>
      <trkpt lat="41.87836" lon="9.1543">
        <ele>1369.47</ele>
        <time>2015-07-27T06:25:34Z</time>
      </trkpt>
      <trkpt lat="41.87854" lon="9.15437">
        <ele>1369.84</ele>
        <time>2015-07-27T06:25:47Z</time>
      </trkpt>
      <trkpt lat="41.87873" lon="9.15438">
        <ele>1367.44</ele>
        <time>2015-07-27T06:26:02Z</time>
      </trkpt>
      <trkpt lat="41.87891" lon="9.15438">
        <ele>1366.83</ele>
        <time>2015-07-27T06:26:19Z</time>
      </trkpt>
      <trkpt lat="41.87909" lon="9.15439">
        <ele>1363.05</ele>
        <time>2015-07-27T06:27:13Z</time>
      </trkpt>
      <trkpt lat="41.87926" lon="9.1543">
        <ele>1365.68</ele>
        <time>2015-07-27T06:27:32Z</time>
      </trkpt>
      <trkpt lat="41.87944" lon="9.15428">
        <ele>1363.55</ele>
        <time>2015-07-27T06:27:48Z</time>
      </trkpt>
      <trkpt lat="41.87962" lon="9.15433">
        <ele>1360.72</ele>
        <time>2015-07-27T06:28:03Z</time>
      </trkpt>
      <trkpt lat="41.8798" lon="9.15436">
        <ele>1364.61</ele>
        <time>2015-07-27T06:28:23Z</time>
      </trkpt>
      <trkpt lat="41.87998" lon="9.15435">
        <ele>1359.79</ele>
        <time>2015-07-27T06:28:43Z</time>
      </trkpt>
      <trkpt lat="41.88017" lon="9.15438">
        <ele>1366.43</ele>
        <time>2015-07-27T06:29:07Z</time>
      </trkpt>
      <trkpt lat="41.88034" lon="9.15446">
        <ele>1357.93</ele>
        <time>2015-07-27T06:29:24Z</time>
      </trkpt>
      <trkpt lat="41.88053" lon="9.15444">
        <ele>1353.85</ele>
        <time>2015-07-27T06:29:55Z</time>
      </trkpt>
      <trkpt lat="41.88071" lon="9.15445">
        <ele>1352.88</ele>
        <time>2015-07-27T06:30:20Z</time>
      </trkpt>
      <trkpt lat="41.88088" lon="9.15455">
        <ele>1348.4</ele>
        <time>2015-07-27T06:30:45Z</time>
      </trkpt>
      <trkpt lat="41.88106" lon="9.15456">
        <ele>1349.66</ele>
        <time>2015-07-27T06:30:58Z</time>
      </trkpt>
      <trkpt lat="41.88124" lon="9.15458">
        <ele>1349.93</ele>
        <time>2015-07-27T06:31:18Z</time>
      </trkpt>
      <trkpt lat="41.88144" lon="9.15457">
        <ele>1344.34</ele>
        <time>2015-07-27T06:35:23Z</time>
      </trkpt>
      <trkpt lat="41.88162" lon="9.15456">
        <ele>1344.1</ele>
        <time>2015-07-27T06:35:34Z</time>
      </trkpt>
      <trkpt lat="41.8818" lon="9.15461">
        <ele>1350.89</ele>
        <time>2015-07-27T06:35:52Z</time>
      </trkpt>
      <trkpt lat="41.88198" lon="9.15461">
        <ele>1346.3</ele>
        <time>2015-07-27T06:36:09Z</time>
      </trkpt>
      <trkpt lat="41.88216" lon="9.15457">
        <ele>1347.61</ele>
        <time>2015-07-27T06:36:36Z</time>
      </trkpt>
      <trkpt lat="41.88235" lon="9.15456">
        <ele>1343.68</ele>
        <time>2015-07-27T06:37:00Z</time>
      </trkpt>
      <trkpt lat="41.88252" lon="9.15463">
        <ele>1344.59</ele>
        <time>2015-07-27T06:37:41Z</time>
      </trkpt>
      <trkpt lat="41.8827" lon="9.15461">
        <ele>1339.53</ele>
        <time>2015-07-27T06:37:50Z</time>
      </trkpt>
      <trkpt lat="41.88289" lon="9.15457">
        <ele>1337.72</ele>
        <time>2015-07-27T06:38:05Z</time>
      </trkpt>
      <trkpt lat="41.88306" lon="9.15463">
        <ele>1341.08</ele>
        <time>2015-07-27T06:38:21Z</time>
      </trkpt>
      <trkpt lat="41.88325" lon="9.1547">
        <ele>1335.94</ele>
        <time>2015-07-27T06:38:35Z</time>
      </trkpt>
      <trkpt lat="41.88343" lon="9.15473">
        <ele>1333.51</ele>
        <time>2015-07-27T06:38:51Z</time>
      </trkpt>
      <trkpt lat="41.88361" lon="9.15471">
        <ele>1336.42</ele>
        <time>2015-07-27T06:39:10Z</time>
      </trkpt>
      <trkpt lat="41.88379" lon="9.15474">
        <ele>1333.11</ele>
        <time>2015-07-27T06:39:28Z</time>
      </trkpt>
      <trkpt lat="41.88395" lon="9.15488">
        <ele>1326.1</ele>
        <time>2015-07-27T06:39:45Z</time>
      </trkpt>
      <trkpt lat="41.88412" lon="9.15496">
        <ele>1322.13</ele>
        <time>2015-07-27T06:40:09Z</time>
      </trkpt>
      <trkpt lat="41.88428" lon="9.15509">
        <ele>1324.2</ele>
        <time>2015-07-27T06:40:32Z</time>
      </trkpt>
      <trkpt lat="41.88446" lon="9.1551">
        <ele>1308.85</ele>
        <time>2015-07-27T06:41:17Z</time>
      </trkpt>
      <trkpt lat="41.88464" lon="9.15508">
        <ele>1313.4</ele>
        <time>2015-07-27T06:41:37Z</time>
      </trkpt>
      <trkpt lat="41.88482" lon="9.15501">
        <ele>1317.75</ele>
        <time>2015-07-27T06:42:04Z</time>
      </trkpt>
      <trkpt lat="41.885" lon="9.15497">
        <ele>1322.68</ele>
        <time>2015-07-27T06:42:29Z</time>
      </trkpt>
      <trkpt lat="41.88518" lon="9.15492">
        <ele>1328.79</ele>
        <time>2015-07-27T06:42:47Z</time>
      </trkpt>
      <trkpt lat="41.88536" lon="9.15501">
        <ele>1324.4</ele>
        <time>2015-07-27T06:43:19Z</time>
      </trkpt>
      <trkpt lat="41.88551" lon="9.15515">
        <ele>1319.93</ele>
        <time>2015-07-27T06:43:33Z</time>
      </trkpt>
      <trkpt lat="41.88568" lon="9.15523">
        <ele>1316.14</ele>
        <time>2015-07-27T06:43:46Z</time>
      </trkpt>
      <trkpt lat="41.88586" lon="9.15527">
        <ele>1323.92</ele>
        <time>2015-07-27T06:44:04Z</time>
      </trkpt>
      <trkpt lat="41.88605" lon="9.15522">
        <ele>1319.08</ele>
        <time>2015-07-27T06:44:20Z</time>
      </trkpt>
      <trkpt lat="41.88623" lon="9.15524">
        <ele>1319.89</ele>
        <time>2015-07-27T06:44:40Z</time>
      </trkpt>
      <trkpt lat="41.88641" lon="9.15531">
        <ele>1323.97</ele>
        <time>2015-07-27T07:02:25Z</time>
      </trkpt>
      <trkpt lat="41.88659" lon="9.1554">
        <ele>1324.56</ele>
        <time>2015-07-27T07:02:42Z</time>
      </trkpt>
      <trkpt lat="41.88677" lon="9.15548">
        <ele>1329.78</ele>
        <time>2015-07-27T07:02:54Z</time>
      </trkpt>
      <trkpt lat="41.88695" lon="9.15556">
        <ele>1327.73</ele>
        <time>2015-07-27T07:03:11Z</time>
      </trkpt>
      <trkpt lat="41.88714" lon="9.15557">
        <ele>1329.95</ele>
        <time>2015-07-27T07:03:29Z</time>
      </trkpt>
      <trkpt lat="41.88731" lon="9.15549">
        <ele>1330.97</ele>
        <time>2015-07-27T07:03:47Z</time>
      </trkpt>
      <trkpt lat="41.8875" lon="9.15548">
        <ele>1328.61</ele>
        <time>2015-07-27T07:04:10Z</time>
      </trkpt>
      <trkpt lat="41.88768" lon="9.15554">
        <ele>1327.7</ele>
        <time>2015-07-27T07:04:43Z</time>
      </trkpt>
      <trkpt lat="41.88784" lon="9.15543">
        <ele>1315.59</ele>
        <time>2015-07-27T07:05:47Z</time>
      </trkpt>
      <trkpt lat="41.88802" lon="9.15548">
        <ele>1324.08</ele>
        <time>2015-07-27T07:06:26Z</time>
      </trkpt>
      <trkpt lat="41.88817" lon="9.15562">
        <ele>1322.65</ele>
        <time>2015-07-27T07:06:44Z</time>
      </trkpt>
      <trkpt lat="41.88833" lon="9.15574">
        <ele>1326.61</ele>
        <time>2015-07-27T07:06:57Z</time>
      </trkpt>
      <trkpt lat="41.88851" lon="9.1558">
        <ele>1325.18</ele>
        <time>2015-07-27T07:07:14Z</time>
      </trkpt>
      <trkpt lat="41.88867" lon="9.15592">
        <ele>1322.86</ele>
        <time>2015-07-27T07:07:42Z</time>
      </trkpt>
      <trkpt lat="41.88883" lon="9.15603">
        <ele>1322.15</ele>
        <time>2015-07-27T07:08:15Z</time>
      </trkpt>
      <trkpt lat="41.88896" lon="9.15621">
        <ele>1316.74</ele>
        <time>2015-07-27T07:08:32Z</time>
      </trkpt>
      <trkpt lat="41.8891" lon="9.15637">
        <ele>1317.66</ele>
        <time>2015-07-27T07:08:53Z</time>
      </trkpt>
      <trkpt lat="41.88922" lon="9.15655">
        <ele>1315.26</ele>
        <time>2015-07-27T07:09:17Z</time>
      </trkpt>
      <trkpt lat="41.88937" lon="9.15671">
        <ele>1317.08</ele>
        <time>2015-07-27T07:09:33Z</time>
      </trkpt>
      <trkpt lat="41.88955" lon="9.1568">
        <ele>1315.1</ele>
        <time>2015-07-27T07:09:54Z</time>
      </trkpt>
      <trkpt lat="41.88966" lon="9.157">
        <ele>1314.23</ele>
        <time>2015-07-27T07:10:24Z</time>
      </trkpt>
      <trkpt lat="41.88979" lon="9.1572">
        <ele>1315.48</ele>
        <time>2015-07-27T07:10:39Z</time>
      </trkpt>
      <trkpt lat="41.88993" lon="9.15736">
        <ele>1320.25</ele>
        <time>2015-07-27T07:10:58Z</time>
      </trkpt>
      <trkpt lat="41.89005" lon="9.15755">
        <ele>1321.9</ele>
        <time>2015-07-27T07:11:11Z</time>
      </trkpt>
      <trkpt lat="41.89019" lon="9.15771">
        <ele>1313.61</ele>
        <time>2015-07-27T07:11:30Z</time>
      </trkpt>
      <trkpt lat="41.89035" lon="9.15782">
        <ele>1320.91</ele>
        <time>2015-07-27T07:11:48Z</time>
      </trkpt>
      <trkpt lat="41.89052" lon="9.15792">
        <ele>1314.92</ele>
        <time>2015-07-27T07:12:09Z</time>
      </trkpt>
      <trkpt lat="41.89069" lon="9.15799">
        <ele>1315.19</ele>
        <time>2015-07-27T07:12:27Z</time>
      </trkpt>
      <trkpt lat="41.89087" lon="9.15807">
        <ele>1317.71</ele>
        <time>2015-07-27T07:12:59Z</time>
      </trkpt>
      <trkpt lat="41.89104" lon="9.15816">
        <ele>1316.57</ele>
        <time>2015-07-27T07:13:18Z</time>
      </trkpt>
      <trkpt lat="41.89123" lon="9.15817">
        <ele>1316.91</ele>
        <time>2015-07-27T07:13:30Z</time>
      </trkpt>
      <trkpt lat="41.8914" lon="9.15827">
        <ele>1314.91</ele>
        <time>2015-07-27T07:13:44Z</time>
      </trkpt>
      <trkpt lat="41.89158" lon="9.15834">
        <ele>1308.25</ele>
        <time>2015-07-27T07:14:02Z</time>
      </trkpt>
      <trkpt lat="41.8917" lon="9.15853">
        <ele>1311.9</ele>
        <time>2015-07-27T07:14:24Z</time>
      </trkpt>
      <trkpt lat="41.89187" lon="9.15862">
        <ele>1311.49</ele>
        <time>2015-07-27T07:14:55Z</time>
      </trkpt>
      <trkpt lat="41.892" lon="9.15879">
        <ele>1308.14</ele>
        <time>2015-07-27T07:15:18Z</time>
      </trkpt>
      <trkpt lat="41.89215" lon="9.15891">
        <ele>1308.59</ele>
        <time>2015-07-27T07:16:28Z</time>
      </trkpt>
      <trkpt lat="41.89233" lon="9.15886">
        <ele>1301.82</ele>
        <time>2015-07-27T07:17:18Z</time>
      </trkpt>
      <trkpt lat="41.8925" lon="9.15897">
        <ele>1311.37</ele>
        <time>2015-07-27T07:17:58Z</time>
      </trkpt>
      <trkpt lat="41.89268" lon="9.15895">
        <ele>1313.93</ele>
        <time>2015-07-27T07:18:40Z</time>
      </trkpt>
      <trkpt lat="41.89286" lon="9.15895">
        <ele>1317.34</ele>
        <time>2015-07-27T07:19:10Z</time>
      </trkpt>
      <trkpt lat="41.89303" lon="9.15908">
        <ele>1318.37</ele>
        <time>2015-07-27T07:19:42Z</time>
      </trkpt>
      <trkpt lat="41.89315" lon="9.15925">
        <ele>1320.35</ele>
        <time>2015-07-27T07:20:04Z</time>
      </trkpt>
      <trkpt lat="41.89332" lon="9.15937">
        <ele>1322.56</ele>
        <time>2015-07-27T07:20:28Z</time>
      </trkpt>
      <trkpt lat="41.8935" lon="9.1594">
        <ele>1321.38</ele>
        <time>2015-07-27T07:20:48Z</time>
      </trkpt>
      <trkpt lat="41.89368" lon="9.15947">
        <ele>1323.51</ele>
        <time>2015-07-27T07:21:06Z</time>
      </trkpt>
      <trkpt lat="41.89386" lon="9.15943">
        <ele>1329.82</ele>
        <time>2015-07-27T07:21:34Z</time>
      </trkpt>
      <trkpt lat="41.89405" lon="9.15949">
        <ele>1330.51</ele>
        <time>2015-07-27T07:21:55Z</time>
      </trkpt>
      <trkpt lat="41.89413" lon="9.15971">
        <ele>1335.37</ele>
        <time>2015-07-27T07:22:16Z</time>
      </trkpt>
      <trkpt lat="41.8943" lon="9.15981">
        <ele>1337.17</ele>
        <time>2015-07-27T07:22:39Z</time>
      </trkpt>
      <trkpt lat="41.89448" lon="9.15981">
        <ele>1336.22</ele>
        <time>2015-07-27T07:23:01Z</time>
      </trkpt>
      <trkpt lat="41.89464" lon="9.15969">
        <ele>1337.46</ele>
        <time>2015-07-27T07:23:21Z</time>
      </trkpt>
      <trkpt lat="41.8948" lon="9.15958">
        <ele>1339.58</ele>
        <time>2015-07-27T07:23:41Z</time>
      </trkpt>
      <trkpt lat="41.89498" lon="9.15963">
        <ele>1340.2</ele>
        <time>2015-07-27T07:24:00Z</time>
      </trkpt>
      <trkpt lat="41.89516" lon="9.15965">
        <ele>1341.93</ele>
        <time>2015-07-27T07:24:21Z</time>
      </trkpt>
      <trkpt lat="41.89534" lon="9.15973">
        <ele>1343.43</ele>
        <time>2015-07-27T07:24:37Z</time>
      </trkpt>
      <trkpt lat="41.89552" lon="9.15982">
        <ele>1342.58</ele>
        <time>2015-07-27T07:24:55Z</time>
      </trkpt>
      <trkpt lat="41.89569" lon="9.15991">
        <ele>1339.6</ele>
        <time>2015-07-27T07:25:14Z</time>
      </trkpt>
      <trkpt lat="41.89583" lon="9.16008">
        <ele>1344.49</ele>
        <time>2015-07-27T07:25:42Z</time>
      </trkpt>
      <trkpt lat="41.89596" lon="9.16027">
        <ele>1346.8</ele>
        <time>2015-07-27T07:26:11Z</time>
      </trkpt>
      <trkpt lat="41.89608" lon="9.16047">
        <ele>1349.55</ele>
        <time>2015-07-27T07:26:37Z</time>
      </trkpt>
      <trkpt lat="41.89625" lon="9.16056">
        <ele>1353.79</ele>
        <time>2015-07-27T07:27:01Z</time>
      </trkpt>
      <trkpt lat="41.89634" lon="9.16077">
        <ele>1362.01</ele>
        <time>2015-07-27T07:27:46Z</time>
      </trkpt>
      <trkpt lat="41.89648" lon="9.16093">
        <ele>1364.31</ele>
        <time>2015-07-27T07:28:31Z</time>
      </trkpt>
      <trkpt lat="41.89666" lon="9.16091">
        <ele>1367.46</ele>
        <time>2015-07-27T07:28:56Z</time>
      </trkpt>
      <trkpt lat="41.89674" lon="9.16114">
        <ele>1374.38</ele>
        <time>2015-07-27T07:29:31Z</time>
      </trkpt>
      <trkpt lat="41.89684" lon="9.16135">
        <ele>1374.46</ele>
        <time>2015-07-27T07:29:53Z</time>
      </trkpt>
      <trkpt lat="41.89697" lon="9.16153">
        <ele>1379.76</ele>
        <time>2015-07-27T07:30:17Z</time>
      </trkpt>
      <trkpt lat="41.89711" lon="9.16169">
        <ele>1376.47</ele>
        <time>2015-07-27T07:30:38Z</time>
      </trkpt>
      <trkpt lat="41.89728" lon="9.16179">
        <ele>1375.12</ele>
        <time>2015-07-27T07:31:01Z</time>
      </trkpt>
      <trkpt lat="41.89746" lon="9.16173">
        <ele>1375.47</ele>
        <time>2015-07-27T07:31:21Z</time>
      </trkpt>
      <trkpt lat="41.89764" lon="9.16172">
        <ele>1372.44</ele>
        <time>2015-07-27T07:33:16Z</time>
      </trkpt>
      <trkpt lat="41.89783" lon="9.16177">
        <ele>1373.26</ele>
        <time>2015-07-27T07:33:58Z</time>
      </trkpt>
      <trkpt lat="41.89798" lon="9.16192">
        <ele>1377.4</ele>
        <time>2015-07-27T07:34:21Z</time>
      </trkpt>
      <trkpt lat="41.89807" lon="9.16213">
        <ele>1382.86</ele>
        <time>2015-07-27T07:34:44Z</time>
      </trkpt>
      <trkpt lat="41.89814" lon="9.16236">
        <ele>1382.93</ele>
        <time>2015-07-27T07:35:03Z</time>
      </trkpt>
      <trkpt lat="41.89823" lon="9.1626">
        <ele>1383.12</ele>
        <time>2015-07-27T07:35:33Z</time>
      </trkpt>
      <trkpt lat="41.89831" lon="9.16282">
        <ele>1384.83</ele>
        <time>2015-07-27T07:35:52Z</time>
      </trkpt>
      <trkpt lat="41.89842" lon="9.16301">
        <ele>1378.49</ele>
        <time>2015-07-27T07:36:10Z</time>
      </trkpt>
      <trkpt lat="41.89856" lon="9.16318">
        <ele>1378.21</ele>
        <time>2015-07-27T07:36:27Z</time>
      </trkpt>
      <trkpt lat="41.89865" lon="9.1634">
        <ele>1376.2</ele>
        <time>2015-07-27T07:36:44Z</time>
      </trkpt>
      <trkpt lat="41.89875" lon="9.1636">
        <ele>1379.53</ele>
        <time>2015-07-27T07:37:05Z</time>
      </trkpt>
      <trkpt lat="41.89891" lon="9.16373">
        <ele>1378.02</ele>
        <time>2015-07-27T07:37:21Z</time>
      </trkpt>
      <trkpt lat="41.89907" lon="9.16385">
        <ele>1377.2</ele>
        <time>2015-07-27T07:37:38Z</time>
      </trkpt>
      <trkpt lat="41.89922" lon="9.16399">
        <ele>1376.47</ele>
        <time>2015-07-27T07:38:13Z</time>
      </trkpt>
      <trkpt lat="41.89941" lon="9.16402">
        <ele>1381.68</ele>
        <time>2015-07-27T07:38:47Z</time>
      </trkpt>
      <trkpt lat="41.89954" lon="9.16419">
        <ele>1387.25</ele>
        <time>2015-07-27T07:39:18Z</time>
      </trkpt>
      <trkpt lat="41.89969" lon="9.16433">
        <ele>1390.82</ele>
        <time>2015-07-27T07:39:36Z</time>
      </trkpt>
      <trkpt lat="41.8998" lon="9.16451">
        <ele>1390.94</ele>
        <time>2015-07-27T07:40:07Z</time>
      </trkpt>
      <trkpt lat="41.89993" lon="9.1647">
        <ele>1398.58</ele>
        <time>2015-07-27T07:40:57Z</time>
      </trkpt>
      <trkpt lat="41.90011" lon="9.16475">
        <ele>1399.19</ele>
        <time>2015-07-27T07:41:23Z</time>
      </trkpt>
      <trkpt lat="41.90022" lon="9.16494">
        <ele>1399.88</ele>
        <time>2015-07-27T07:41:59Z</time>
      </trkpt>
      <trkpt lat="41.90033" lon="9.16513">
        <ele>1401.66</ele>
        <time>2015-07-27T07:42:30Z</time>
      </trkpt>
      <trkpt lat="41.90042" lon="9.16536">
        <ele>1404.65</ele>
        <time>2015-07-27T07:43:00Z</time>
      </trkpt>
      <trkpt lat="41.90051" lon="9.16557">
        <ele>1406.91</ele>
        <time>2015-07-27T07:43:27Z</time>
      </trkpt>
      <trkpt lat="41.90065" lon="9.16573">
        <ele>1409.69</ele>
        <time>2015-07-27T07:43:58Z</time>
      </trkpt>
      <trkpt lat="41.90082" lon="9.1658">
        <ele>1408.97</ele>
        <time>2015-07-27T07:44:31Z</time>
      </trkpt>
      <trkpt lat="41.901" lon="9.16579">
        <ele>1417.36</ele>
        <time>2015-07-27T07:45:17Z</time>
      </trkpt>
      <trkpt lat="41.90118" lon="9.16583">
        <ele>1419.46</ele>
        <time>2015-07-27T07:45:47Z</time>
      </trkpt>
      <trkpt lat="41.90136" lon="9.16582">
        <ele>1426.46</ele>
        <time>2015-07-27T07:46:26Z</time>
      </trkpt>
      <trkpt lat="41.90147" lon="9.16602">
        <ele>1432.09</ele>
        <time>2015-07-27T07:47:09Z</time>
      </trkpt>
      <trkpt lat="41.90149" lon="9.16626">
        <ele>1434.9</ele>
        <time>2015-07-27T07:47:43Z</time>
      </trkpt>
      <trkpt lat="41.90148" lon="9.16651">
        <ele>1435.53</ele>
        <time>2015-07-27T07:48:16Z</time>
      </trkpt>
      <trkpt lat="41.90144" lon="9.16675">
        <ele>1438.97</ele>
        <time>2015-07-27T07:49:15Z</time>
      </trkpt>
      <trkpt lat="41.90147" lon="9.16699">
        <ele>1444.45</ele>
        <time>2015-07-27T07:49:44Z</time>
      </trkpt>
      <trkpt lat="41.90148" lon="9.16725">
        <ele>1447.91</ele>
        <time>2015-07-27T07:50:20Z</time>
      </trkpt>
      <trkpt lat="41.90151" lon="9.16749">
        <ele>1444.83</ele>
        <time>2015-07-27T07:50:35Z</time>
      </trkpt>
      <trkpt lat="41.90155" lon="9.16774">
        <ele>1444.83</ele>
        <time>2015-07-27T07:51:11Z</time>
      </trkpt>
      <trkpt lat="41.90157" lon="9.16798">
        <ele>1449.35</ele>
        <time>2015-07-27T07:51:26Z</time>
      </trkpt>
      <trkpt lat="41.90163" lon="9.16821">
        <ele>1455.15</ele>
        <time>2015-07-27T07:52:10Z</time>
      </trkpt>
      <trkpt lat="41.90172" lon="9.16842">
        <ele>1457.82</ele>
        <time>2015-07-27T07:52:50Z</time>
      </trkpt>
      <trkpt lat="41.90188" lon="9.16854">
        <ele>1460.72</ele>
        <time>2015-07-27T07:53:16Z</time>
      </trkpt>
      <trkpt lat="41.90197" lon="9.16876">
        <ele>1460.65</ele>
        <time>2015-07-27T07:53:52Z</time>
      </trkpt>
      <trkpt lat="41.90203" lon="9.16899">
        <ele>1465.97</ele>
        <time>2015-07-27T07:54:27Z</time>
      </trkpt>
      <trkpt lat="41.90211" lon="9.16921">
        <ele>1467.65</ele>
        <time>2015-07-27T07:57:42Z</time>
      </trkpt>
      <trkpt lat="41.90217" lon="9.16944">
        <ele>1465.84</ele>
        <time>2015-07-27T07:58:06Z</time>
      </trkpt>
      <trkpt lat="41.90222" lon="9.16968">
        <ele>1470.49</ele>
        <time>2015-07-27T07:59:49Z</time>
      </trkpt>
      <trkpt lat="41.90233" lon="9.16987">
        <ele>1468.09</ele>
        <time>2015-07-27T08:00:23Z</time>
      </trkpt>
      <trkpt lat="41.90244" lon="9.17006">
        <ele>1468.98</ele>
        <time>2015-07-27T08:00:52Z</time>
      </trkpt>
      <trkpt lat="41.90255" lon="9.17026">
        <ele>1467.72</ele>
        <time>2015-07-27T08:01:19Z</time>
      </trkpt>
      <trkpt lat="41.90269" lon="9.17042">
        <ele>1478.77</ele>
        <time>2015-07-27T08:02:20Z</time>
      </trkpt>
      <trkpt lat="41.90277" lon="9.17064">
        <ele>1494.39</ele>
        <time>2015-07-27T08:02:54Z</time>
      </trkpt>
      <trkpt lat="41.90288" lon="9.17084">
        <ele>1507.26</ele>
        <time>2015-07-27T08:03:33Z</time>
      </trkpt>
      <trkpt lat="41.90294" lon="9.17108">
        <ele>1511.02</ele>
        <time>2015-07-27T08:03:49Z</time>
      </trkpt>
      <trkpt lat="41.90303" lon="9.1713">
        <ele>1505.79</ele>
        <time>2015-07-27T08:04:08Z</time>
      </trkpt>
      <trkpt lat="41.90303" lon="9.17155">
        <ele>1513.04</ele>
        <time>2015-07-27T08:04:38Z</time>
      </trkpt>
      <trkpt lat="41.90311" lon="9.17176">
        <ele>1509.6</ele>
        <time>2015-07-27T08:05:00Z</time>
      </trkpt>
      <trkpt lat="41.90322" lon="9.17195">
        <ele>1515.38</ele>
        <time>2015-07-27T08:05:28Z</time>
      </trkpt>
      <trkpt lat="41.90337" lon="9.17208">
        <ele>1511.27</ele>
        <time>2015-07-27T08:06:06Z</time>
      </trkpt>
      <trkpt lat="41.90354" lon="9.17219">
        <ele>1513.78</ele>
        <time>2015-07-27T08:06:26Z</time>
      </trkpt>
      <trkpt lat="41.90372" lon="9.17226">
        <ele>1515.2</ele>
        <time>2015-07-27T08:06:48Z</time>
      </trkpt>
      <trkpt lat="41.90382" lon="9.17246">
        <ele>1514.29</ele>
        <time>2015-07-27T08:07:33Z</time>
      </trkpt>
      <trkpt lat="41.90381" lon="9.1727">
        <ele>1522.65</ele>
        <time>2015-07-27T08:08:35Z</time>
      </trkpt>
      <trkpt lat="41.90385" lon="9.17295">
        <ele>1514.92</ele>
        <time>2015-07-27T08:09:19Z</time>
      </trkpt>
      <trkpt lat="41.90396" lon="9.17315">
        <ele>1520.35</ele>
        <time>2015-07-27T08:10:12Z</time>
      </trkpt>
      <trkpt lat="41.90406" lon="9.17335">
        <ele>1521.41</ele>
        <time>2015-07-27T08:10:35Z</time>
      </trkpt>
      <trkpt lat="41.90418" lon="9.17354">
        <ele>1525.62</ele>
        <time>2015-07-27T08:11:43Z</time>
      </trkpt>
      <trkpt lat="41.90435" lon="9.17366">
        <ele>1529.15</ele>
        <time>2015-07-27T08:12:07Z</time>
      </trkpt>
      <trkpt lat="41.90449" lon="9.17381">
        <ele>1536.52</ele>
        <time>2015-07-27T08:12:48Z</time>
      </trkpt>
      <trkpt lat="41.90463" lon="9.17396">
        <ele>1537.52</ele>
        <time>2015-07-27T08:13:06Z</time>
      </trkpt>
      <trkpt lat="41.9048" lon="9.17408">
        <ele>1546.59</ele>
        <time>2015-07-27T08:13:48Z</time>
      </trkpt>
      <trkpt lat="41.90493" lon="9.17426">
        <ele>1546.17</ele>
        <time>2015-07-27T08:14:11Z</time>
      </trkpt>
      <trkpt lat="41.90507" lon="9.17441">
        <ele>1547.96</ele>
        <time>2015-07-27T08:14:54Z</time>
      </trkpt>
      <trkpt lat="41.90515" lon="9.17464">
        <ele>1545.43</ele>
        <time>2015-07-27T08:15:13Z</time>
      </trkpt>
      <trkpt lat="41.90522" lon="9.17486">
        <ele>1551.93</ele>
        <time>2015-07-27T08:15:32Z</time>
      </trkpt>
      <trkpt lat="41.90524" lon="9.1751">
        <ele>1554.46</ele>
        <time>2015-07-27T08:15:52Z</time>
      </trkpt>
      <trkpt lat="41.90527" lon="9.17534">
        <ele>1558.94</ele>
        <time>2015-07-27T08:16:19Z</time>
      </trkpt>
      <trkpt lat="41.90531" lon="9.17559">
        <ele>1562.57</ele>
        <time>2015-07-27T08:17:13Z</time>
      </trkpt>
      <trkpt lat="41.90541" lon="9.1758">
        <ele>1565.47</ele>
        <time>2015-07-27T08:17:50Z</time>
      </trkpt>
      <trkpt lat="41.90546" lon="9.17603">
        <ele>1567.99</ele>
        <time>2015-07-27T08:18:10Z</time>
      </trkpt>
      <trkpt lat="41.90552" lon="9.17626">
        <ele>1569.72</ele>
        <time>2015-07-27T08:18:32Z</time>
      </trkpt>
      <trkpt lat="41.90564" lon="9.17645">
        <ele>1573.98</ele>
        <time>2015-07-27T08:18:57Z</time>
      </trkpt>
      <trkpt lat="41.90574" lon="9.17666">
        <ele>1572.87</ele>
        <time>2015-07-27T08:19:18Z</time>
      </trkpt>
      <trkpt lat="41.90575" lon="9.1769">
        <ele>1572.25</ele>
        <time>2015-07-27T08:19:40Z</time>
      </trkpt>
      <trkpt lat="41.9057" lon="9.17715">
        <ele>1572.72</ele>
        <time>2015-07-27T08:20:02Z</time>
      </trkpt>
      <trkpt lat="41.90573" lon="9.17739">
        <ele>1571.59</ele>
        <time>2015-07-27T08:20:46Z</time>
      </trkpt>
      <trkpt lat="41.9057" lon="9.17743">
        <ele>1569.47</ele>
        <time>2015-07-27T08:30:29Z</time>
      </trkpt>
      <trkpt lat="41.90557" lon="9.1776">
        <ele>1569.82</ele>
        <time>2015-07-27T08:30:48Z</time>
      </trkpt>
      <trkpt lat="41.90568" lon="9.1774">
        <ele>1568.69</ele>
        <time>2015-07-27T08:33:57Z</time>
      </trkpt>
      <trkpt lat="41.90577" lon="9.17719">
        <ele>1571.48</ele>
        <time>2015-07-27T08:34:47Z</time>
      </trkpt>
      <trkpt lat="41.90593" lon="9.17705">
        <ele>1573.58</ele>
        <time>2015-07-27T08:35:03Z</time>
      </trkpt>
      <trkpt lat="41.9061" lon="9.17694">
        <ele>1577.72</ele>
        <time>2015-07-27T08:35:22Z</time>
      </trkpt>
      <trkpt lat="41.90628" lon="9.17689">
        <ele>1575.77</ele>
        <time>2015-07-27T08:35:39Z</time>
      </trkpt>
      <trkpt lat="41.90647" lon="9.17692">
        <ele>1573.47</ele>
        <time>2015-07-27T08:35:55Z</time>
      </trkpt>
      <trkpt lat="41.90663" lon="9.17701">
        <ele>1575.26</ele>
        <time>2015-07-27T08:36:15Z</time>
      </trkpt>
      <trkpt lat="41.9068" lon="9.1771">
        <ele>1578</ele>
        <time>2015-07-27T08:36:34Z</time>
      </trkpt>
      <trkpt lat="41.90699" lon="9.17708">
        <ele>1580.5</ele>
        <time>2015-07-27T08:36:58Z</time>
      </trkpt>
      <trkpt lat="41.90717" lon="9.17712">
        <ele>1581.79</ele>
        <time>2015-07-27T08:37:29Z</time>
      </trkpt>
      <trkpt lat="41.90733" lon="9.17725">
        <ele>1588.46</ele>
        <time>2015-07-27T08:38:10Z</time>
      </trkpt>
      <trkpt lat="41.90751" lon="9.17731">
        <ele>1598.39</ele>
        <time>2015-07-27T08:38:41Z</time>
      </trkpt>
      <trkpt lat="41.90769" lon="9.17739">
        <ele>1597.32</ele>
        <time>2015-07-27T08:39:13Z</time>
      </trkpt>
      <trkpt lat="41.90787" lon="9.17741">
        <ele>1606.72</ele>
        <time>2015-07-27T08:39:48Z</time>
      </trkpt>
      <trkpt lat="41.90803" lon="9.17753">
        <ele>1605.28</ele>
        <time>2015-07-27T08:40:20Z</time>
      </trkpt>
      <trkpt lat="41.90821" lon="9.17757">
        <ele>1611.61</ele>
        <time>2015-07-27T08:41:16Z</time>
      </trkpt>
      <trkpt lat="41.90835" lon="9.17741">
        <ele>1619.65</ele>
        <time>2015-07-27T08:42:21Z</time>
      </trkpt>
      <trkpt lat="41.90841" lon="9.17717">
        <ele>1622.09</ele>
        <time>2015-07-27T08:43:07Z</time>
      </trkpt>
      <trkpt lat="41.90848" lon="9.17695">
        <ele>1630.44</ele>
        <time>2015-07-27T08:43:58Z</time>
      </trkpt>
      <trkpt lat="41.9085" lon="9.17671">
        <ele>1634.31</ele>
        <time>2015-07-27T08:44:26Z</time>
      </trkpt>
      <trkpt lat="41.90858" lon="9.17649">
        <ele>1637.05</ele>
        <time>2015-07-27T08:44:54Z</time>
      </trkpt>
      <trkpt lat="41.90869" lon="9.17628">
        <ele>1648.56</ele>
        <time>2015-07-27T08:45:39Z</time>
      </trkpt>
      <trkpt lat="41.90886" lon="9.1762">
        <ele>1646.37</ele>
        <time>2015-07-27T08:46:09Z</time>
      </trkpt>
      <trkpt lat="41.90904" lon="9.17624">
        <ele>1650.52</ele>
        <time>2015-07-27T08:46:25Z</time>
      </trkpt>
      <trkpt lat="41.90919" lon="9.1761">
        <ele>1655.21</ele>
        <time>2015-07-27T08:46:45Z</time>
      </trkpt>
      <trkpt lat="41.90933" lon="9.17594">
        <ele>1653.4</ele>
        <time>2015-07-27T08:47:16Z</time>
      </trkpt>
      <trkpt lat="41.90943" lon="9.17573">
        <ele>1659.08</ele>
        <time>2015-07-27T08:47:36Z</time>
      </trkpt>
      <trkpt lat="41.90958" lon="9.1756">
        <ele>1653.65</ele>
        <time>2015-07-27T08:48:02Z</time>
      </trkpt>
      <trkpt lat="41.90976" lon="9.1756">
        <ele>1651.93</ele>
        <time>2015-07-27T08:48:32Z</time>
      </trkpt>
      <trkpt lat="41.90993" lon="9.1755">
        <ele>1658.47</ele>
        <time>2015-07-27T08:49:09Z</time>
      </trkpt>
      <trkpt lat="41.91011" lon="9.1755">
        <ele>1657.97</ele>
        <time>2015-07-27T08:50:30Z</time>
      </trkpt>
      <trkpt lat="41.91024" lon="9.17533">
        <ele>1665.97</ele>
        <time>2015-07-27T09:05:45Z</time>
      </trkpt>
      <trkpt lat="41.91033" lon="9.17554">
        <ele>1662.21</ele>
        <time>2015-07-27T09:07:25Z</time>
      </trkpt>
      <trkpt lat="41.91049" lon="9.17567">
        <ele>1662.28</ele>
        <time>2015-07-27T09:08:08Z</time>
      </trkpt>
      <trkpt lat="41.9106" lon="9.17586">
        <ele>1670.14</ele>
        <time>2015-07-27T09:08:55Z</time>
      </trkpt>
      <trkpt lat="41.91075" lon="9.17602">
        <ele>1674.11</ele>
        <time>2015-07-27T09:09:32Z</time>
      </trkpt>
      <trkpt lat="41.9108" lon="9.17625">
        <ele>1676.9</ele>
        <time>2015-07-27T09:10:08Z</time>
      </trkpt>
      <trkpt lat="41.91081" lon="9.17649">
        <ele>1684.74</ele>
        <time>2015-07-27T09:10:37Z</time>
      </trkpt>
      <trkpt lat="41.91077" lon="9.17673">
        <ele>1679.69</ele>
        <time>2015-07-27T09:10:58Z</time>
      </trkpt>
      <trkpt lat="41.9107" lon="9.17695">
        <ele>1682.41</ele>
        <time>2015-07-27T09:11:27Z</time>
      </trkpt>
      <trkpt lat="41.91066" lon="9.17719">
        <ele>1687.69</ele>
        <time>2015-07-27T09:11:46Z</time>
      </trkpt>
      <trkpt lat="41.91059" lon="9.17742">
        <ele>1691.4</ele>
        <time>2015-07-27T09:12:51Z</time>
      </trkpt>
      <trkpt lat="41.91048" lon="9.17761">
        <ele>1686.71</ele>
        <time>2015-07-27T09:13:19Z</time>
      </trkpt>
      <trkpt lat="41.91066" lon="9.17764">
        <ele>1685.19</ele>
        <time>2015-07-27T10:35:26Z</time>
      </trkpt>
      <trkpt lat="41.91084" lon="9.1777">
        <ele>1688.84</ele>
        <time>2015-07-27T10:35:50Z</time>
      </trkpt>
      <trkpt lat="41.91097" lon="9.17787">
        <ele>1687.52</ele>
        <time>2015-07-27T10:36:12Z</time>
      </trkpt>
      <trkpt lat="41.91113" lon="9.17799">
        <ele>1690.37</ele>
        <time>2015-07-27T10:36:30Z</time>
      </trkpt>
      <trkpt lat="41.91125" lon="9.17818">
        <ele>1691.99</ele>
        <time>2015-07-27T10:36:50Z</time>
      </trkpt>
      <trkpt lat="41.91143" lon="9.17824">
        <ele>1683.71</ele>
        <time>2015-07-27T10:37:11Z</time>
      </trkpt>
      <trkpt lat="41.9116" lon="9.17834">
        <ele>1685</ele>
        <time>2015-07-27T10:37:32Z</time>
      </trkpt>
      <trkpt lat="41.91173" lon="9.17852">
        <ele>1688.58</ele>
        <time>2015-07-27T10:37:59Z</time>
      </trkpt>
      <trkpt lat="41.9119" lon="9.17859">
        <ele>1691.18</ele>
        <time>2015-07-27T10:38:23Z</time>
      </trkpt>
      <trkpt lat="41.91205" lon="9.17874">
        <ele>1697.32</ele>
        <time>2015-07-27T10:39:24Z</time>
      </trkpt>
      <trkpt lat="41.9122" lon="9.17889">
        <ele>1704.97</ele>
        <time>2015-07-27T10:40:32Z</time>
      </trkpt>
      <trkpt lat="41.91236" lon="9.17899">
        <ele>1707.1</ele>
        <time>2015-07-27T10:41:00Z</time>
      </trkpt>
      <trkpt lat="41.91252" lon="9.17911">
        <ele>1712</ele>
        <time>2015-07-27T10:43:17Z</time>
      </trkpt>
      <trkpt lat="41.91265" lon="9.17929">
        <ele>1720.47</ele>
        <time>2015-07-27T10:44:23Z</time>
      </trkpt>
      <trkpt lat="41.91263" lon="9.17953">
        <ele>1723.29</ele>
        <time>2015-07-27T10:44:52Z</time>
      </trkpt>
      <trkpt lat="41.91281" lon="9.17956">
        <ele>1729.38</ele>
        <time>2015-07-27T10:45:36Z</time>
      </trkpt>
      <trkpt lat="41.91297" lon="9.17968">
        <ele>1735.4</ele>
        <time>2015-07-27T10:46:10Z</time>
      </trkpt>
      <trkpt lat="41.9131" lon="9.17985">
        <ele>1736.45</ele>
        <time>2015-07-27T10:46:39Z</time>
      </trkpt>
      <trkpt lat="41.91325" lon="9.18">
        <ele>1736.72</ele>
        <time>2015-07-27T10:47:20Z</time>
      </trkpt>
      <trkpt lat="41.91335" lon="9.18021">
        <ele>1744.69</ele>
        <time>2015-07-27T10:47:56Z</time>
      </trkpt>
      <trkpt lat="41.91353" lon="9.18024">
        <ele>1743.45</ele>
        <time>2015-07-27T10:48:28Z</time>
      </trkpt>
      <trkpt lat="41.91371" lon="9.18028">
        <ele>1748.23</ele>
        <time>2015-07-27T10:49:08Z</time>
      </trkpt>
      <trkpt lat="41.91385" lon="9.18042">
        <ele>1752.14</ele>
        <time>2015-07-27T10:49:38Z</time>
      </trkpt>
      <trkpt lat="41.914" lon="9.18058">
        <ele>1756.45</ele>
        <time>2015-07-27T10:50:11Z</time>
      </trkpt>
      <trkpt lat="41.91417" lon="9.18066">
        <ele>1758.98</ele>
        <time>2015-07-27T10:51:27Z</time>
      </trkpt>
      <trkpt lat="41.91433" lon="9.1808">
        <ele>1760.65</ele>
        <time>2015-07-27T10:52:02Z</time>
      </trkpt>
      <trkpt lat="41.91449" lon="9.18092">
        <ele>1760.4</ele>
        <time>2015-07-27T10:52:30Z</time>
      </trkpt>
      <trkpt lat="41.91463" lon="9.18109">
        <ele>1765.27</ele>
        <time>2015-07-27T10:53:42Z</time>
      </trkpt>
      <trkpt lat="41.91466" lon="9.18133">
        <ele>1783.22</ele>
        <time>2015-07-27T10:55:27Z</time>
      </trkpt>
      <trkpt lat="41.9148" lon="9.1815">
        <ele>1784.44</ele>
        <time>2015-07-27T10:56:10Z</time>
      </trkpt>
      <trkpt lat="41.91484" lon="9.18174">
        <ele>1789.11</ele>
        <time>2015-07-27T10:57:25Z</time>
      </trkpt>
      <trkpt lat="41.91488" lon="9.18198">
        <ele>1800.77</ele>
        <time>2015-07-27T10:58:13Z</time>
      </trkpt>
      <trkpt lat="41.915" lon="9.18217">
        <ele>1798.96</ele>
        <time>2015-07-27T10:58:52Z</time>
      </trkpt>
      <trkpt lat="41.9151" lon="9.18238">
        <ele>1803</ele>
        <time>2015-07-27T10:59:23Z</time>
      </trkpt>
      <trkpt lat="41.91522" lon="9.18256">
        <ele>1805.47</ele>
        <time>2015-07-27T10:59:55Z</time>
      </trkpt>
      <trkpt lat="41.91529" lon="9.18278">
        <ele>1804.47</ele>
        <time>2015-07-27T11:00:38Z</time>
      </trkpt>
      <trkpt lat="41.91529" lon="9.18303">
        <ele>1810.78</ele>
        <time>2015-07-27T11:02:16Z</time>
      </trkpt>
      <trkpt lat="41.91534" lon="9.18326">
        <ele>1794.95</ele>
        <time>2015-07-27T11:03:27Z</time>
      </trkpt>
      <trkpt lat="41.91545" lon="9.18345">
        <ele>1796.01</ele>
        <time>2015-07-27T11:05:07Z</time>
      </trkpt>
      <trkpt lat="41.91557" lon="9.18364">
        <ele>1791.86</ele>
        <time>2015-07-27T11:05:34Z</time>
      </trkpt>
      <trkpt lat="41.91574" lon="9.18376">
        <ele>1788.92</ele>
        <time>2015-07-27T11:05:56Z</time>
      </trkpt>
      <trkpt lat="41.91588" lon="9.18391">
        <ele>1789.33</ele>
        <time>2015-07-27T11:06:29Z</time>
      </trkpt>
      <trkpt lat="41.91605" lon="9.18399">
        <ele>1780.63</ele>
        <time>2015-07-27T11:06:54Z</time>
      </trkpt>
      <trkpt lat="41.91622" lon="9.18407">
        <ele>1786.95</ele>
        <time>2015-07-27T11:07:28Z</time>
      </trkpt>
      <trkpt lat="41.91639" lon="9.18416">
        <ele>1789.98</ele>
        <time>2015-07-27T11:07:56Z</time>
      </trkpt>
      <trkpt lat="41.91657" lon="9.18421">
        <ele>1788.2</ele>
        <time>2015-07-27T11:08:34Z</time>
      </trkpt>
      <trkpt lat="41.91675" lon="9.18428">
        <ele>1793.95</ele>
        <time>2015-07-27T11:09:13Z</time>
      </trkpt>
      <trkpt lat="41.91692" lon="9.18436">
        <ele>1795.15</ele>
        <time>2015-07-27T11:09:34Z</time>
      </trkpt>
      <trkpt lat="41.91708" lon="9.18447">
        <ele>1801.04</ele>
        <time>2015-07-27T11:10:02Z</time>
      </trkpt>
      <trkpt lat="41.91726" lon="9.18449">
        <ele>1800.46</ele>
        <time>2015-07-27T11:10:31Z</time>
      </trkpt>
      <trkpt lat="41.91745" lon="9.18452">
        <ele>1801.62</ele>
        <time>2015-07-27T11:11:01Z</time>
      </trkpt>
      <trkpt lat="41.91763" lon="9.18455">
        <ele>1808.39</ele>
        <time>2015-07-27T11:11:28Z</time>
      </trkpt>
      <trkpt lat="41.9178" lon="9.18464">
        <ele>1809.08</ele>
        <time>2015-07-27T11:12:09Z</time>
      </trkpt>
      <trkpt lat="41.91798" lon="9.18473">
        <ele>1808.97</ele>
        <time>2015-07-27T11:12:35Z</time>
      </trkpt>
      <trkpt lat="41.91816" lon="9.18469">
        <ele>1808.49</ele>
        <time>2015-07-27T11:13:17Z</time>
      </trkpt>
      <trkpt lat="41.91833" lon="9.18475">
        <ele>1815.97</ele>
        <time>2015-07-27T11:13:45Z</time>
      </trkpt>
      <trkpt lat="41.91844" lon="9.18495">
        <ele>1806.25</ele>
        <time>2015-07-27T11:14:32Z</time>
      </trkpt>
      <trkpt lat="41.91849" lon="9.18519">
        <ele>1827.46</ele>
        <time>2015-07-27T11:15:46Z</time>
      </trkpt>
      <trkpt lat="41.91861" lon="9.18537">
        <ele>1827.93</ele>
        <time>2015-07-27T11:17:18Z</time>
      </trkpt>
      <trkpt lat="41.91873" lon="9.18556">
        <ele>1826.04</ele>
        <time>2015-07-27T11:17:58Z</time>
      </trkpt>
      <trkpt lat="41.91887" lon="9.18572">
        <ele>1818.62</ele>
        <time>2015-07-27T11:18:18Z</time>
      </trkpt>
      <trkpt lat="41.91902" lon="9.18586">
        <ele>1828.72</ele>
        <time>2015-07-27T11:20:07Z</time>
      </trkpt>
      <trkpt lat="41.9192" lon="9.1859">
        <ele>1828.21</ele>
        <time>2015-07-27T11:20:51Z</time>
      </trkpt>
      <trkpt lat="41.91938" lon="9.18594">
        <ele>1824.47</ele>
        <time>2015-07-27T11:27:22Z</time>
      </trkpt>
      <trkpt lat="41.91935" lon="9.18618">
        <ele>1811.47</ele>
        <time>2015-07-27T11:39:19Z</time>
      </trkpt>
      <trkpt lat="41.91953" lon="9.18624">
        <ele>1806.29</ele>
        <time>2015-07-27T11:40:43Z</time>
      </trkpt>
      <trkpt lat="41.91971" lon="9.18629">
        <ele>1809.66</ele>
        <time>2015-07-27T11:42:03Z</time>
      </trkpt>
      <trkpt lat="41.91988" lon="9.18639">
        <ele>1814.59</ele>
        <time>2015-07-27T11:42:57Z</time>
      </trkpt>
      <trkpt lat="41.92005" lon="9.1865">
        <ele>1823.71</ele>
        <time>2015-07-27T11:44:19Z</time>
      </trkpt>
      <trkpt lat="41.92017" lon="9.18668">
        <ele>1823.47</ele>
        <time>2015-07-27T11:44:47Z</time>
      </trkpt>
      <trkpt lat="41.9203" lon="9.18686">
        <ele>1827.84</ele>
        <time>2015-07-27T11:45:02Z</time>
      </trkpt>
      <trkpt lat="41.92039" lon="9.18707">
        <ele>1825.11</ele>
        <time>2015-07-27T11:45:53Z</time>
      </trkpt>
      <trkpt lat="41.92049" lon="9.18728">
        <ele>1822.47</ele>
        <time>2015-07-27T11:46:16Z</time>
      </trkpt>
      <trkpt lat="41.92065" lon="9.18741">
        <ele>1817.56</ele>
        <time>2015-07-27T11:49:51Z</time>
      </trkpt>
      <trkpt lat="41.92079" lon="9.18757">
        <ele>1812.07</ele>
        <time>2015-07-27T11:50:30Z</time>
      </trkpt>
      <trkpt lat="41.9209" lon="9.18776">
        <ele>1811.18</ele>
        <time>2015-07-27T11:50:58Z</time>
      </trkpt>
      <trkpt lat="41.92098" lon="9.18798">
        <ele>1815.46</ele>
        <time>2015-07-27T11:51:19Z</time>
      </trkpt>
      <trkpt lat="41.92102" lon="9.18822">
        <ele>1816.22</ele>
        <time>2015-07-27T11:51:40Z</time>
      </trkpt>
      <trkpt lat="41.92106" lon="9.18846">
        <ele>1817.45</ele>
        <time>2015-07-27T11:52:01Z</time>
      </trkpt>
      <trkpt lat="41.92112" lon="9.1887">
        <ele>1817.93</ele>
        <time>2015-07-27T11:52:27Z</time>
      </trkpt>
      <trkpt lat="41.92111" lon="9.18894">
        <ele>1823.15</ele>
        <time>2015-07-27T11:53:36Z</time>
      </trkpt>
      <trkpt lat="41.92122" lon="9.18914">
        <ele>1831.97</ele>
        <time>2015-07-27T11:54:39Z</time>
      </trkpt>
      <trkpt lat="41.92131" lon="9.18936">
        <ele>1833.5</ele>
        <time>2015-07-27T11:55:26Z</time>
      </trkpt>
      <trkpt lat="41.92145" lon="9.18952">
        <ele>1833.49</ele>
        <time>2015-07-27T11:56:02Z</time>
      </trkpt>
      <trkpt lat="41.9216" lon="9.18966">
        <ele>1829.41</ele>
        <time>2015-07-27T11:58:15Z</time>
      </trkpt>
      <trkpt lat="41.92171" lon="9.18985">
        <ele>1826.5</ele>
        <time>2015-07-27T11:58:45Z</time>
      </trkpt>
      <trkpt lat="41.92184" lon="9.19002">
        <ele>1826.52</ele>
        <time>2015-07-27T11:59:36Z</time>
      </trkpt>
      <trkpt lat="41.92193" lon="9.19023">
        <ele>1820.89</ele>
        <time>2015-07-27T12:00:19Z</time>
      </trkpt>
      <trkpt lat="41.9221" lon="9.19033">
        <ele>1817.08</ele>
        <time>2015-07-27T12:00:58Z</time>
      </trkpt>
      <trkpt lat="41.92229" lon="9.1903">
        <ele>1809.06</ele>
        <time>2015-07-27T12:01:45Z</time>
      </trkpt>
      <trkpt lat="41.92247" lon="9.19031">
        <ele>1800.55</ele>
        <time>2015-07-27T12:02:54Z</time>
      </trkpt>
      <trkpt lat="41.92263" lon="9.19043">
        <ele>1799.5</ele>
        <time>2015-07-27T12:03:53Z</time>
      </trkpt>
      <trkpt lat="41.92276" lon="9.19059">
        <ele>1800.71</ele>
        <time>2015-07-27T12:04:17Z</time>
      </trkpt>
      <trkpt lat="41.92291" lon="9.19072">
        <ele>1803.5</ele>
        <time>2015-07-27T12:04:44Z</time>
      </trkpt>
      <trkpt lat="41.92298" lon="9.19095">
        <ele>1805.43</ele>
        <time>2015-07-27T12:05:05Z</time>
      </trkpt>
      <trkpt lat="41.92306" lon="9.19118">
        <ele>1803.34</ele>
        <time>2015-07-27T12:06:01Z</time>
      </trkpt>
      <trkpt lat="41.92317" lon="9.19136">
        <ele>1808.12</ele>
        <time>2015-07-27T12:16:24Z</time>
      </trkpt>
      <trkpt lat="41.92334" lon="9.19147">
        <ele>1802.98</ele>
        <time>2015-07-27T12:17:07Z</time>
      </trkpt>
      <trkpt lat="41.92351" lon="9.19157">
        <ele>1800.39</ele>
        <time>2015-07-27T12:17:28Z</time>
      </trkpt>
      <trkpt lat="41.92366" lon="9.1917">
        <ele>1800.57</ele>
        <time>2015-07-27T12:18:09Z</time>
      </trkpt>
      <trkpt lat="41.92395" lon="9.19165">
        <ele>1801.47</ele>
        <time>2015-07-27T12:19:20Z</time>
      </trkpt>
      <trkpt lat="41.9238" lon="9.19182">
        <ele>1800.97</ele>
        <time>2015-07-27T12:19:21Z</time>
      </trkpt>
      <trkpt lat="41.9239" lon="9.19202">
        <ele>1800.66</ele>
        <time>2015-07-27T12:19:32Z</time>
      </trkpt>
      <trkpt lat="41.92404" lon="9.19218">
        <ele>1803.32</ele>
        <time>2015-07-27T12:19:55Z</time>
      </trkpt>
      <trkpt lat="41.9242" lon="9.1923">
        <ele>1796.43</ele>
        <time>2015-07-27T12:21:11Z</time>
      </trkpt>
      <trkpt lat="41.92435" lon="9.19244">
        <ele>1796.31</ele>
        <time>2015-07-27T12:21:41Z</time>
      </trkpt>
      <trkpt lat="41.92449" lon="9.1926">
        <ele>1790.73</ele>
        <time>2015-07-27T12:22:32Z</time>
      </trkpt>
      <trkpt lat="41.9246" lon="9.1928">
        <ele>1787.84</ele>
        <time>2015-07-27T12:22:54Z</time>
      </trkpt>
      <trkpt lat="41.92452" lon="9.19302">
        <ele>1794.39</ele>
        <time>2015-07-27T12:23:38Z</time>
      </trkpt>
      <trkpt lat="41.9247" lon="9.19309">
        <ele>1804.21</ele>
        <time>2015-07-27T12:24:16Z</time>
      </trkpt>
      <trkpt lat="41.92486" lon="9.19319">
        <ele>1806.97</ele>
        <time>2015-07-27T12:24:41Z</time>
      </trkpt>
      <trkpt lat="41.92499" lon="9.19337">
        <ele>1808.22</ele>
        <time>2015-07-27T12:24:59Z</time>
      </trkpt>
      <trkpt lat="41.92513" lon="9.19355">
        <ele>1806.53</ele>
        <time>2015-07-27T12:25:21Z</time>
      </trkpt>
      <trkpt lat="41.92526" lon="9.19372">
        <ele>1802.9</ele>
        <time>2015-07-27T12:25:49Z</time>
      </trkpt>
      <trkpt lat="41.9254" lon="9.19387">
        <ele>1796.35</ele>
        <time>2015-07-27T12:26:18Z</time>
      </trkpt>
      <trkpt lat="41.92556" lon="9.194">
        <ele>1798.22</ele>
        <time>2015-07-27T12:26:40Z</time>
      </trkpt>
      <trkpt lat="41.92571" lon="9.19415">
        <ele>1794.5</ele>
        <time>2015-07-27T12:27:12Z</time>
      </trkpt>
      <trkpt lat="41.92588" lon="9.19425">
        <ele>1787.93</ele>
        <time>2015-07-27T12:27:37Z</time>
      </trkpt>
      <trkpt lat="41.92601" lon="9.19442">
        <ele>1785.96</ele>
        <time>2015-07-27T12:27:55Z</time>
      </trkpt>
      <trkpt lat="41.92614" lon="9.1946">
        <ele>1783.48</ele>
        <time>2015-07-27T12:28:20Z</time>
      </trkpt>
      <trkpt lat="41.92624" lon="9.19481">
        <ele>1782.7</ele>
        <time>2015-07-27T12:28:46Z</time>
      </trkpt>
      <trkpt lat="41.92629" lon="9.19506">
        <ele>1779.04</ele>
        <time>2015-07-27T12:29:11Z</time>
      </trkpt>
      <trkpt lat="41.92631" lon="9.1953">
        <ele>1774.65</ele>
        <time>2015-07-27T12:29:33Z</time>
      </trkpt>
      <trkpt lat="41.92642" lon="9.19549">
        <ele>1772.09</ele>
        <time>2015-07-27T12:30:07Z</time>
      </trkpt>
      <trkpt lat="41.92661" lon="9.19555">
        <ele>1770.03</ele>
        <time>2015-07-27T12:30:42Z</time>
      </trkpt>
      <trkpt lat="41.92679" lon="9.19558">
        <ele>1775.28</ele>
        <time>2015-07-27T12:31:16Z</time>
      </trkpt>
      <trkpt lat="41.92689" lon="9.19577">
        <ele>1763.43</ele>
        <time>2015-07-27T12:32:02Z</time>
      </trkpt>
      <trkpt lat="41.92706" lon="9.19587">
        <ele>1774.33</ele>
        <time>2015-07-27T12:32:21Z</time>
      </trkpt>
      <trkpt lat="41.92722" lon="9.19598">
        <ele>1769.18</ele>
        <time>2015-07-27T12:32:41Z</time>
      </trkpt>
      <trkpt lat="41.92736" lon="9.19613">
        <ele>1771.68</ele>
        <time>2015-07-27T12:33:16Z</time>
      </trkpt>
      <trkpt lat="41.92753" lon="9.1962">
        <ele>1768.1</ele>
        <time>2015-07-27T12:34:04Z</time>
      </trkpt>
      <trkpt lat="41.92772" lon="9.19623">
        <ele>1764.9</ele>
        <time>2015-07-27T12:34:36Z</time>
      </trkpt>
      <trkpt lat="41.92786" lon="9.19639">
        <ele>1762.17</ele>
        <time>2015-07-27T12:35:06Z</time>
      </trkpt>
      <trkpt lat="41.92803" lon="9.19647">
        <ele>1761.09</ele>
        <time>2015-07-27T12:35:35Z</time>
      </trkpt>
      <trkpt lat="41.92812" lon="9.19668">
        <ele>1760.68</ele>
        <time>2015-07-27T12:36:01Z</time>
      </trkpt>
      <trkpt lat="41.92825" lon="9.19685">
        <ele>1753.5</ele>
        <time>2015-07-27T12:36:47Z</time>
      </trkpt>
      <trkpt lat="41.9283" lon="9.19709">
        <ele>1748.22</ele>
        <time>2015-07-27T12:37:48Z</time>
      </trkpt>
      <trkpt lat="41.92839" lon="9.1973">
        <ele>1753.47</ele>
        <time>2015-07-27T12:38:44Z</time>
      </trkpt>
      <trkpt lat="41.92849" lon="9.19751">
        <ele>1756.5</ele>
        <time>2015-07-27T12:39:40Z</time>
      </trkpt>
      <trkpt lat="41.92866" lon="9.19762">
        <ele>1762.04</ele>
        <time>2015-07-27T12:40:51Z</time>
      </trkpt>
      <trkpt lat="41.92881" lon="9.19777">
        <ele>1759.61</ele>
        <time>2015-07-27T12:41:21Z</time>
      </trkpt>
      <trkpt lat="41.92897" lon="9.19788">
        <ele>1756.52</ele>
        <time>2015-07-27T12:41:50Z</time>
      </trkpt>
      <trkpt lat="41.92913" lon="9.198">
        <ele>1756.91</ele>
        <time>2015-07-27T12:42:18Z</time>
      </trkpt>
      <trkpt lat="41.92929" lon="9.19814">
        <ele>1756.57</ele>
        <time>2015-07-27T12:42:37Z</time>
      </trkpt>
      <trkpt lat="41.92941" lon="9.19832">
        <ele>1744.85</ele>
        <time>2015-07-27T12:43:20Z</time>
      </trkpt>
      <trkpt lat="41.92955" lon="9.19847">
        <ele>1740.94</ele>
        <time>2015-07-27T12:43:43Z</time>
      </trkpt>
      <trkpt lat="41.92962" lon="9.1987">
        <ele>1745.49</ele>
        <time>2015-07-27T12:44:40Z</time>
      </trkpt>
      <trkpt lat="41.92978" lon="9.19882">
        <ele>1745.59</ele>
        <time>2015-07-27T12:45:07Z</time>
      </trkpt>
      <trkpt lat="41.92987" lon="9.19903">
        <ele>1738.95</ele>
        <time>2015-07-27T12:46:13Z</time>
      </trkpt>
      <trkpt lat="41.92998" lon="9.19923">
        <ele>1742.38</ele>
        <time>2015-07-27T12:46:34Z</time>
      </trkpt>
      <trkpt lat="41.93007" lon="9.19944">
        <ele>1742.47</ele>
        <time>2015-07-27T12:47:32Z</time>
      </trkpt>
      <trkpt lat="41.93023" lon="9.19956">
        <ele>1747.59</ele>
        <time>2015-07-27T12:48:18Z</time>
      </trkpt>
      <trkpt lat="41.93036" lon="9.19973">
        <ele>1739.24</ele>
        <time>2015-07-27T12:49:10Z</time>
      </trkpt>
      <trkpt lat="41.93048" lon="9.19991">
        <ele>1740.22</ele>
        <time>2015-07-27T12:49:55Z</time>
      </trkpt>
      <trkpt lat="41.93062" lon="9.20007">
        <ele>1742.93</ele>
        <time>2015-07-27T12:52:55Z</time>
      </trkpt>
      <trkpt lat="41.93075" lon="9.20023">
        <ele>1741.97</ele>
        <time>2015-07-27T13:09:50Z</time>
      </trkpt>
      <trkpt lat="41.93093" lon="9.20028">
        <ele>1743.22</ele>
        <time>2015-07-27T13:11:09Z</time>
      </trkpt>
      <trkpt lat="41.93112" lon="9.2003">
        <ele>1747.51</ele>
        <time>2015-07-27T13:11:48Z</time>
      </trkpt>
      <trkpt lat="41.93123" lon="9.20048">
        <ele>1743.22</ele>
        <time>2015-07-27T13:12:30Z</time>
      </trkpt>
      <trkpt lat="41.93139" lon="9.2006">
        <ele>1739.68</ele>
        <time>2015-07-27T13:13:30Z</time>
      </trkpt>
      <trkpt lat="41.93154" lon="9.20073">
        <ele>1732.89</ele>
        <time>2015-07-27T13:14:04Z</time>
      </trkpt>
      <trkpt lat="41.9317" lon="9.20086">
        <ele>1738.48</ele>
        <time>2015-07-27T13:16:21Z</time>
      </trkpt>
      <trkpt lat="41.93188" lon="9.2009">
        <ele>1742.15</ele>
        <time>2015-07-27T13:17:00Z</time>
      </trkpt>
      <trkpt lat="41.93202" lon="9.20106">
        <ele>1747.21</ele>
        <time>2015-07-27T13:17:40Z</time>
      </trkpt>
      <trkpt lat="41.93214" lon="9.20124">
        <ele>1753.98</ele>
        <time>2015-07-27T13:18:36Z</time>
      </trkpt>
      <trkpt lat="41.93225" lon="9.20144">
        <ele>1760.79</ele>
        <time>2015-07-27T13:19:14Z</time>
      </trkpt>
      <trkpt lat="41.93233" lon="9.20167">
        <ele>1759.25</ele>
        <time>2015-07-27T13:19:41Z</time>
      </trkpt>
      <trkpt lat="41.93244" lon="9.20186">
        <ele>1756.73</ele>
        <time>2015-07-27T13:20:21Z</time>
      </trkpt>
      <trkpt lat="41.93259" lon="9.20201">
        <ele>1750.04</ele>
        <time>2015-07-27T13:20:46Z</time>
      </trkpt>
      <trkpt lat="41.93273" lon="9.20218">
        <ele>1752.2</ele>
        <time>2015-07-27T13:21:17Z</time>
      </trkpt>
      <trkpt lat="41.93288" lon="9.20231">
        <ele>1750.52</ele>
        <time>2015-07-27T13:22:00Z</time>
      </trkpt>
      <trkpt lat="41.93302" lon="9.20247">
        <ele>1760.05</ele>
        <time>2015-07-27T13:22:44Z</time>
      </trkpt>
      <trkpt lat="41.93318" lon="9.20235">
        <ele>1769.49</ele>
        <time>2015-07-27T13:23:59Z</time>
      </trkpt>
      <trkpt lat="41.93334" lon="9.20246">
        <ele>1774.48</ele>
        <time>2015-07-27T13:25:17Z</time>
      </trkpt>
      <trkpt lat="41.93352" lon="9.20253">
        <ele>1777.7</ele>
        <time>2015-07-27T13:26:28Z</time>
      </trkpt>
      <trkpt lat="41.93359" lon="9.20275">
        <ele>1783.03</ele>
        <time>2015-07-27T13:27:15Z</time>
      </trkpt>
      <trkpt lat="41.93373" lon="9.2029">
        <ele>1789.04</ele>
        <time>2015-07-27T13:28:06Z</time>
      </trkpt>
      <trkpt lat="41.93389" lon="9.20302">
        <ele>1794.11</ele>
        <time>2015-07-27T13:28:35Z</time>
      </trkpt>
      <trkpt lat="41.93403" lon="9.20318">
        <ele>1795.39</ele>
        <time>2015-07-27T13:29:13Z</time>
      </trkpt>
      <trkpt lat="41.93419" lon="9.20329">
        <ele>1797.62</ele>
        <time>2015-07-27T13:29:50Z</time>
      </trkpt>
      <trkpt lat="41.93435" lon="9.20341">
        <ele>1801.82</ele>
        <time>2015-07-27T13:30:12Z</time>
      </trkpt>
      <trkpt lat="41.93453" lon="9.20348">
        <ele>1794.34</ele>
        <time>2015-07-27T13:34:39Z</time>
      </trkpt>
      <trkpt lat="41.93458" lon="9.20372">
        <ele>1786.14</ele>
        <time>2015-07-27T13:35:51Z</time>
      </trkpt>
      <trkpt lat="41.93466" lon="9.20394">
        <ele>1773.72</ele>
        <time>2015-07-27T13:36:43Z</time>
      </trkpt>
      <trkpt lat="41.93478" lon="9.20412">
        <ele>1771.38</ele>
        <time>2015-07-27T13:37:29Z</time>
      </trkpt>
      <trkpt lat="41.93493" lon="9.20425">
        <ele>1768.35</ele>
        <time>2015-07-27T13:37:48Z</time>
      </trkpt>
      <trkpt lat="41.93507" lon="9.20442">
        <ele>1767.98</ele>
        <time>2015-07-27T13:38:16Z</time>
      </trkpt>
      <trkpt lat="41.93512" lon="9.20466">
        <ele>1766.24</ele>
        <time>2015-07-27T13:39:03Z</time>
      </trkpt>
      <trkpt lat="41.93516" lon="9.20491">
        <ele>1760.34</ele>
        <time>2015-07-27T13:40:06Z</time>
      </trkpt>
      <trkpt lat="41.93522" lon="9.20514">
        <ele>1754.48</ele>
        <time>2015-07-27T13:41:09Z</time>
      </trkpt>
      <trkpt lat="41.93521" lon="9.20539">
        <ele>1749.43</ele>
        <time>2015-07-27T13:41:48Z</time>
      </trkpt>
      <trkpt lat="41.93526" lon="9.20562">
        <ele>1748.15</ele>
        <time>2015-07-27T13:42:12Z</time>
      </trkpt>
      <trkpt lat="41.93524" lon="9.20587">
        <ele>1745.29</ele>
        <time>2015-07-27T13:42:32Z</time>
      </trkpt>
      <trkpt lat="41.93524" lon="9.20612">
        <ele>1746.18</ele>
        <time>2015-07-27T13:43:01Z</time>
      </trkpt>
      <trkpt lat="41.93518" lon="9.20589">
        <ele>1740.72</ele>
        <time>2015-07-27T13:46:58Z</time>
      </trkpt>
      <trkpt lat="41.93509" lon="9.20567">
        <ele>1741.59</ele>
        <time>2015-07-27T13:48:21Z</time>
      </trkpt>
    </trkseg>
  </trk>
</gpx>